createdAt,value
2022-09-01T00:00:39.394Z,17.62
2022-09-01T00:03:08.782Z,17.63
2022-09-01T00:05:37.888Z,17.57
2022-09-01T00:08:07.200Z,17.60
2022-09-01T00:10:52.509Z,17.49
2022-09-01T00:13:22.991Z,17.44
2022-09-01T00:15:51.784Z,17.36
2022-09-01T00:18:21.012Z,17.30
2022-09-01T00:20:49.987Z,17.31
2022-09-01T00:23:20.189Z,17.32
2022-09-01T00:25:59.691Z,17.23
2022-09-01T00:28:30.298Z,17.22
2022-09-01T00:30:59.453Z,17.15
2022-09-01T00:33:30.501Z,17.13
2022-09-01T00:35:59.917Z,17.08
2022-09-01T00:38:31.640Z,17.09
2022-09-01T00:41:02.033Z,16.97
2022-09-01T00:43:44.608Z,16.90
2022-09-01T00:46:20.384Z,16.90
2022-09-01T00:48:59.711Z,16.89
2022-09-01T00:51:30.150Z,16.91
2022-09-01T00:54:04.045Z,16.92
2022-09-01T00:56:34.954Z,16.84
2022-09-01T00:59:06.138Z,16.86
2022-09-01T01:01:38.586Z,16.90
2022-09-01T01:04:18.685Z,16.84
2022-09-01T01:06:52.501Z,16.76
2022-09-01T01:09:23.206Z,16.66
2022-09-01T01:11:52.303Z,16.73
2022-09-01T01:14:21.113Z,16.72
2022-09-01T01:16:52.247Z,16.83
2022-09-01T01:19:50.945Z,16.86
2022-09-01T01:22:40.398Z,16.80
2022-09-01T01:25:09.148Z,16.67
2022-09-01T01:27:43.188Z,16.65
2022-09-01T01:30:11.215Z,16.63
2022-09-01T01:32:42.422Z,16.58
2022-09-01T01:35:15.916Z,16.64
2022-09-01T01:37:47.957Z,16.63
2022-09-01T01:40:20.045Z,16.56
2022-09-01T01:42:52.085Z,16.58
2022-09-01T01:45:23.445Z,16.64
2022-09-01T01:47:54.123Z,16.56
2022-09-01T01:50:26.394Z,16.58
2022-09-01T01:52:58.576Z,16.58
2022-09-01T01:55:31.084Z,16.50
2022-09-01T01:58:02.033Z,16.47
2022-09-01T02:00:34.301Z,16.35
2022-09-01T02:03:03.359Z,16.30
2022-09-01T02:05:34.670Z,16.33
2022-09-01T02:08:06.258Z,16.40
2022-09-01T02:10:44.365Z,16.30
2022-09-01T02:13:19.565Z,16.26
2022-09-01T02:15:55.744Z,16.24
2022-09-01T02:18:30.813Z,16.23
2022-09-01T02:21:01.023Z,16.27
2022-09-01T02:23:30.043Z,16.31
2022-09-01T02:26:16.040Z,16.38
2022-09-01T02:28:36.947Z,16.37
2022-09-01T02:31:08.496Z,16.35
2022-09-01T02:33:39.766Z,16.26
2022-09-01T02:36:16.895Z,16.13
2022-09-01T02:38:53.341Z,16.12
2022-09-01T02:41:21.800Z,16.14
2022-09-01T02:43:51.049Z,16.17
2022-09-01T02:46:24.555Z,16.25
2022-09-01T02:49:02.381Z,16.14
2022-09-01T02:51:34.368Z,16.17
2022-09-01T02:54:04.619Z,16.00
2022-09-01T02:56:34.698Z,16.24
2022-09-01T02:59:06.304Z,16.13
2022-09-01T03:01:36.645Z,16.13
2022-09-01T03:04:09.127Z,16.12
2022-09-01T03:06:39.187Z,16.19
2022-09-01T03:09:20.139Z,16.19
2022-09-01T03:11:51.014Z,16.08
2022-09-01T03:14:24.027Z,16.02
2022-09-01T03:16:53.481Z,15.97
2022-09-01T03:19:29.496Z,15.89
2022-09-01T03:22:01.033Z,15.81
2022-09-01T03:24:29.716Z,15.71
2022-09-01T03:26:58.422Z,15.75
2022-09-01T03:29:27.119Z,15.79
2022-09-01T03:31:58.717Z,15.88
2022-09-01T03:34:28.097Z,15.33
2022-09-01T03:36:56.808Z,15.69
2022-09-01T03:39:27.118Z,15.73
2022-09-01T03:41:57.551Z,15.74
2022-09-01T03:44:29.493Z,15.73
2022-09-01T03:46:59.924Z,15.78
2022-09-01T03:49:38.084Z,15.70
2022-09-01T03:52:33.635Z,15.56
2022-09-01T03:55:04.127Z,15.49
2022-09-01T03:57:37.661Z,15.39
2022-09-01T04:00:09.638Z,15.52
2022-09-01T04:02:38.981Z,15.45
2022-09-01T04:05:12.377Z,15.47
2022-09-01T04:07:46.356Z,15.52
2022-09-01T04:10:15.763Z,15.63
2022-09-01T04:12:45.074Z,15.70
2022-09-01T04:15:15.462Z,15.64
2022-09-01T04:18:03.374Z,15.54
2022-09-01T04:20:34.746Z,15.58
2022-09-01T04:23:05.115Z,15.59
2022-09-01T04:25:36.823Z,15.63
2022-09-01T04:28:07.679Z,15.69
2022-09-01T04:30:38.198Z,15.81
2022-09-01T04:33:08.482Z,15.93
2022-09-01T04:35:41.182Z,16.00
2022-09-01T04:38:09.879Z,16.25
2022-09-01T04:40:42.066Z,16.55
2022-09-01T04:43:11.505Z,16.58
2022-09-01T04:45:41.055Z,16.75
2022-09-01T04:48:10.074Z,16.37
2022-09-01T04:50:41.406Z,16.88
2022-09-01T04:53:12.124Z,17.03
2022-09-01T04:55:46.159Z,16.80
2022-09-01T04:58:18.734Z,16.72
2022-09-01T05:00:52.559Z,16.75
2022-09-01T05:03:23.098Z,17.00
2022-09-01T05:05:54.306Z,17.04
2022-09-01T05:08:24.918Z,16.92
2022-09-01T05:10:57.962Z,17.27
2022-09-01T05:13:30.273Z,17.47
2022-09-01T05:16:12.477Z,17.79
2022-09-01T05:18:47.739Z,18.00
2022-09-01T05:21:19.980Z,18.04
2022-09-01T05:23:51.541Z,18.13
2022-09-01T05:26:23.768Z,18.20
2022-09-01T05:28:55.410Z,18.10
2022-09-01T05:31:29.701Z,18.04
2022-09-01T05:34:01.670Z,18.24
2022-09-01T05:36:36.502Z,18.34
2022-09-01T05:39:07.818Z,18.41
2022-09-01T05:44:42.453Z,18.79
2022-09-01T05:47:22.853Z,18.75
2022-09-01T05:49:57.796Z,18.95
2022-09-01T05:58:04.053Z,18.85
2022-09-01T06:00:36.541Z,18.67
2022-09-01T06:06:25.446Z,19.50
2022-09-01T06:09:00.550Z,19.48
2022-09-01T06:11:35.593Z,19.65
2022-09-01T06:14:13.818Z,19.94
2022-09-01T06:16:44.726Z,20.28
2022-09-01T06:19:18.549Z,20.25
2022-09-01T06:22:04.018Z,20.06
2022-09-01T06:24:39.283Z,19.90
2022-09-01T06:27:10.289Z,20.02
2022-09-01T06:29:41.920Z,19.88
2022-09-01T06:32:12.703Z,19.95
2022-09-01T06:34:44.678Z,19.48
2022-09-01T06:37:15.545Z,19.35
2022-09-01T06:39:44.271Z,19.38
2022-09-01T06:42:15.169Z,19.46
2022-09-01T06:44:44.261Z,19.79
2022-09-01T06:47:15.774Z,19.87
2022-09-01T06:49:46.175Z,20.10
2022-09-01T06:52:16.221Z,20.21
2022-09-01T06:54:46.791Z,20.22
2022-09-01T07:00:00.340Z,19.78
2022-09-01T07:02:33.832Z,19.86
2022-09-01T07:05:02.885Z,19.92
2022-09-01T07:10:21.384Z,20.26
2022-09-01T07:12:35.270Z,20.12
2022-09-01T07:17:40.341Z,20.60
2022-09-01T07:20:27.177Z,20.63
2022-09-01T07:25:16.710Z,20.39
2022-09-01T07:27:48.443Z,20.55
2022-09-01T07:30:20.955Z,20.68
2022-09-01T07:32:55.231Z,20.83
2022-09-01T07:35:25.592Z,21.04
2022-09-01T07:45:30.896Z,21.29
2022-09-01T07:48:03.946Z,21.03
2022-09-01T07:51:07.668Z,21.36
2022-09-01T07:53:09.455Z,21.44
2022-09-01T07:55:43.941Z,21.62
2022-09-01T07:58:16.189Z,21.78
2022-09-01T08:00:46.778Z,21.67
2022-09-01T08:03:21.631Z,21.33
2022-09-01T08:05:52.857Z,21.26
2022-09-01T08:08:27.787Z,21.56
2022-09-01T08:10:54.595Z,21.80
2022-09-01T08:13:28.912Z,21.94
2022-09-01T08:16:07.187Z,21.94
2022-09-01T08:18:48.146Z,22.15
2022-09-01T08:21:08.490Z,22.10
2022-09-01T08:23:39.235Z,22.23
2022-09-01T08:26:16.069Z,22.83
2022-09-01T08:28:54.952Z,22.72
2022-09-01T08:31:21.060Z,22.92
2022-09-01T08:33:51.589Z,23.06
2022-09-01T08:36:26.697Z,22.78
2022-09-01T08:38:57.965Z,23.24
2022-09-01T08:41:47.479Z,23.29
2022-09-01T08:44:22.747Z,23.15
2022-09-01T08:47:00.827Z,23.20
2022-09-01T08:49:42.712Z,23.37
2022-09-01T08:52:25.643Z,23.29
2022-09-01T08:55:00.790Z,23.23
2022-09-01T08:57:36.882Z,23.18
2022-09-01T09:00:12.755Z,23.33
2022-09-01T09:02:53.544Z,23.63
2022-09-01T09:05:47.747Z,23.67
2022-09-01T09:08:54.541Z,23.46
2022-09-01T09:11:54.251Z,23.81
2022-09-01T09:14:32.996Z,23.87
2022-09-01T09:17:02.640Z,24.04
2022-09-01T09:19:36.247Z,24.17
2022-09-01T09:22:11.497Z,24.20
2022-09-01T09:25:04.361Z,24.08
2022-09-01T09:27:37.941Z,24.31
2022-09-01T09:30:18.189Z,24.76
2022-09-01T09:35:27.038Z,25.01
2022-09-01T09:41:32.410Z,24.88
2022-09-01T09:47:21.902Z,24.81
2022-09-01T09:49:42.209Z,25.12
2022-09-01T09:52:19.074Z,25.32
2022-09-01T09:55:13.441Z,25.44
2022-09-01T09:57:44.296Z,25.27
2022-09-01T10:00:35.295Z,25.22
2022-09-01T10:03:10.879Z,25.21
2022-09-01T10:05:54.409Z,25.32
2022-09-01T10:08:34.345Z,25.64
2022-09-01T10:11:05.462Z,25.98
2022-09-01T10:13:37.749Z,25.79
2022-09-01T10:16:22.007Z,25.95
2022-09-01T10:18:51.382Z,25.81
2022-09-01T10:21:30.406Z,26.13
2022-09-01T10:24:21.215Z,26.30
2022-09-01T10:26:40.279Z,26.34
2022-09-01T10:29:26.688Z,26.40
2022-09-01T10:32:31.236Z,26.06
2022-09-01T10:34:31.195Z,26.45
2022-09-01T10:37:01.314Z,26.66
2022-09-01T10:39:31.091Z,26.55
2022-09-01T10:42:03.498Z,26.24
2022-09-01T10:44:39.052Z,25.93
2022-09-01T10:47:33.851Z,26.32
2022-09-01T10:50:09.906Z,26.18
2022-09-01T10:52:51.235Z,26.10
2022-09-01T10:56:28.228Z,26.67
2022-09-01T11:01:49.837Z,27.45
2022-09-01T11:04:23.426Z,27.41
2022-09-01T11:07:12.761Z,27.82
2022-09-01T11:09:41.884Z,27.69
2022-09-01T11:12:29.998Z,28.07
2022-09-01T11:14:59.013Z,28.07
2022-09-01T11:17:43.342Z,28.24
2022-09-01T11:20:29.890Z,28.76
2022-09-01T11:23:08.497Z,29.00
2022-09-01T11:25:41.912Z,28.79
2022-09-01T11:28:14.829Z,28.97
2022-09-01T11:31:00.630Z,29.26
2022-09-01T11:33:58.457Z,29.53
2022-09-01T11:37:02.941Z,29.52
2022-09-01T11:39:38.421Z,29.60
2022-09-01T11:42:22.212Z,29.75
2022-09-01T11:45:20.714Z,29.84
2022-09-01T11:47:52.955Z,29.65
2022-09-01T11:50:32.198Z,29.42
2022-09-01T11:53:06.719Z,29.20
2022-09-01T11:55:41.176Z,29.16
2022-09-01T11:58:17.916Z,29.09
2022-09-01T12:00:47.676Z,29.00
2022-09-01T12:03:25.867Z,29.16
2022-09-01T12:06:04.245Z,29.17
2022-09-01T12:08:42.098Z,29.36
2022-09-01T12:11:13.575Z,29.26
2022-09-01T12:13:44.743Z,28.96
2022-09-01T12:16:18.968Z,28.88
2022-09-01T12:18:54.277Z,28.88
2022-09-01T12:21:29.169Z,28.94
2022-09-01T12:24:17.676Z,29.04
2022-09-01T12:26:52.509Z,29.02
2022-09-01T12:29:21.589Z,29.04
2022-09-01T12:31:52.718Z,29.27
2022-09-01T12:34:35.996Z,29.18
2022-09-01T12:37:10.327Z,29.72
2022-09-01T12:39:46.128Z,29.81
2022-09-01T12:42:25.197Z,29.98
2022-09-01T12:44:57.484Z,29.53
2022-09-01T12:47:40.715Z,29.82
2022-09-01T12:50:18.062Z,29.64
2022-09-01T12:52:52.838Z,29.85
2022-09-01T12:57:57.915Z,30.29
2022-09-01T13:00:30.405Z,30.35
2022-09-01T13:03:05.537Z,30.26
2022-09-01T13:05:42.473Z,30.41
2022-09-01T13:08:13.349Z,30.67
2022-09-01T13:10:51.748Z,30.48
2022-09-01T13:13:27.113Z,30.33
2022-09-01T13:16:00.218Z,30.22
2022-09-01T13:18:30.403Z,30.28
2022-09-01T13:20:59.583Z,30.21
2022-09-01T13:23:28.516Z,30.12
2022-09-01T13:25:59.191Z,29.90
2022-09-01T13:28:29.665Z,30.31
2022-09-01T13:38:40.665Z,30.82
2022-09-01T13:41:11.665Z,30.97
2022-09-01T13:43:40.543Z,31.16
2022-09-01T13:46:09.681Z,31.25
2022-09-01T13:51:14.904Z,31.80
2022-09-01T13:53:40.334Z,31.78
2022-09-01T13:56:08.990Z,31.84
2022-09-01T13:58:37.794Z,31.53
2022-09-01T14:01:07.322Z,30.88
2022-09-01T14:03:37.808Z,30.68
2022-09-01T14:06:07.941Z,29.85
2022-09-01T14:08:36.826Z,29.86
2022-09-01T14:11:09.753Z,29.05
2022-09-01T14:13:38.672Z,28.75
2022-09-01T14:16:12.669Z,28.77
2022-09-01T14:18:41.772Z,28.95
2022-09-01T14:21:16.007Z,29.12
2022-09-01T14:23:46.263Z,28.69
2022-09-01T14:26:17.409Z,28.33
2022-09-01T14:28:48.544Z,28.28
2022-09-01T14:31:19.592Z,28.14
2022-09-01T14:33:49.215Z,28.04
2022-09-01T14:36:21.281Z,28.03
2022-09-01T14:38:53.864Z,27.74
2022-09-01T14:41:26.434Z,27.80
2022-09-01T14:44:02.826Z,27.90
2022-09-01T14:46:30.484Z,27.79
2022-09-01T14:49:01.703Z,27.51
2022-09-01T14:54:04.476Z,27.53
2022-09-01T14:56:33.231Z,27.31
2022-09-01T14:59:02.372Z,27.21
2022-09-01T15:01:34.582Z,26.94
2022-09-01T15:04:02.466Z,26.83
2022-09-01T15:06:31.897Z,26.78
2022-09-01T15:09:00.661Z,26.79
2022-09-01T15:11:29.310Z,26.63
2022-09-01T15:14:01.022Z,26.54
2022-09-01T15:16:31.215Z,26.34
2022-09-01T15:19:00.396Z,26.20
2022-09-01T15:21:33.245Z,26.32
2022-09-01T15:24:05.037Z,26.39
2022-09-01T15:26:34.471Z,26.60
2022-09-01T15:29:03.376Z,26.58
2022-09-01T15:31:33.932Z,26.67
2022-09-01T15:34:04.540Z,26.61
2022-09-01T15:36:37.141Z,26.72
2022-09-01T15:39:06.705Z,26.54
2022-09-01T15:41:37.470Z,26.61
2022-09-01T15:44:14.129Z,26.40
2022-09-01T15:46:43.650Z,26.22
2022-09-01T15:49:24.030Z,26.03
2022-09-01T15:52:13.835Z,25.31
2022-09-01T15:55:12.574Z,25.82
2022-09-01T16:01:45.988Z,25.65
2022-09-01T16:03:38.594Z,25.47
2022-09-01T16:06:08.274Z,25.37
2022-09-01T16:08:38.150Z,25.02
2022-09-01T16:11:57.036Z,25.01
2022-09-01T16:14:25.535Z,24.80
2022-09-01T16:17:12.486Z,24.57
2022-09-01T16:19:56.221Z,24.49
2022-09-01T16:22:38.427Z,24.53
2022-09-01T16:25:13.197Z,24.37
2022-09-01T16:27:46.440Z,24.27
2022-09-01T16:30:24.350Z,24.31
2022-09-01T16:32:55.034Z,24.27
2022-09-01T16:35:29.412Z,24.15
2022-09-01T16:38:15.231Z,24.14
2022-09-01T16:40:58.584Z,24.10
2022-09-01T16:43:34.435Z,23.72
2022-09-01T16:46:14.920Z,23.92
2022-09-01T16:49:12.524Z,23.83
2022-09-01T16:52:22.574Z,23.79
2022-09-01T16:55:44.356Z,23.35
2022-09-01T17:05:31.711Z,23.10
2022-09-01T17:09:00.147Z,23.07
2022-09-01T17:14:56.476Z,22.90
2022-09-01T17:20:50.402Z,22.79
2022-09-01T17:23:43.349Z,22.72
2022-09-01T17:26:17.791Z,22.65
2022-09-01T17:29:02.306Z,22.62
2022-09-01T17:35:37.009Z,22.63
2022-09-01T17:38:28.729Z,22.48
2022-09-01T17:41:14.630Z,22.53
2022-09-01T17:51:14.533Z,22.60
2022-09-01T17:57:30.106Z,22.49
2022-09-01T18:04:11.707Z,22.44
2022-09-01T18:06:43.772Z,22.38
2022-09-01T18:09:16.149Z,22.33
2022-09-01T18:11:53.350Z,22.41
2022-09-01T18:14:25.193Z,22.39
2022-09-01T18:17:05.737Z,22.42
2022-09-01T18:19:44.820Z,22.36
2022-09-01T18:22:16.777Z,22.27
2022-09-01T18:25:08.799Z,22.28
2022-09-01T18:27:42.917Z,22.28
2022-09-01T18:30:52.078Z,22.18
2022-09-01T18:33:30.213Z,22.23
2022-09-01T18:45:23.916Z,21.96
2022-09-01T19:09:39.854Z,21.70
2022-09-01T19:20:11.275Z,21.64
2022-09-01T19:32:27.973Z,21.50
2022-09-01T19:35:02.601Z,21.51
2022-09-01T19:46:51.675Z,21.22
2022-09-01T19:49:40.068Z,21.20
2022-09-01T19:58:20.974Z,21.13
2022-09-01T20:00:56.258Z,21.00
2022-09-01T20:03:45.825Z,20.74
2022-09-01T20:06:23.534Z,20.63
2022-09-01T20:09:10.228Z,20.65
2022-09-01T20:12:04.529Z,20.71
2022-09-01T20:14:52.894Z,20.68
2022-09-01T20:17:41.432Z,20.73
2022-09-01T20:26:44.284Z,20.70
2022-09-01T20:29:35.068Z,20.55
2022-09-01T20:32:06.451Z,20.57
2022-09-01T20:34:54.806Z,20.51
2022-09-01T20:47:11.613Z,20.60
2022-09-01T20:49:41.617Z,20.58
2022-09-01T21:02:46.970Z,20.39
2022-09-01T21:12:05.986Z,20.25
2022-09-01T21:15:05.746Z,20.29
2022-09-01T21:17:37.729Z,20.31
2022-09-01T21:20:29.983Z,20.33
2022-09-01T21:22:59.481Z,20.16
2022-09-01T21:25:29.664Z,20.23
2022-09-01T21:28:04.014Z,20.34
2022-09-01T21:30:41.837Z,20.39
2022-09-01T21:33:06.245Z,20.37
2022-09-01T21:38:25.636Z,20.31
2022-09-01T21:40:56.332Z,20.28
